sensor_id;sensor_type;location;lat;lon;timestamp;pressure;altitude;pressure_sealevel;temperature;humidity
21779;BME280;11050;52.222;20.916;2023-02-28T00:00:24;101641.31;;;-1.47;78.49
21779;BME280;11050;52.222;20.916;2023-02-28T00:02:50;101633.38;;;-1.48;78.35
21779;BME280;11050;52.222;20.916;2023-02-28T00:05:21;101640.75;;;-1.50;78.90
21779;BME280;11050;52.222;20.916;2023-02-28T00:07:49;101634.66;;;-1.52;79.17
21779;BME280;11050;52.222;20.916;2023-02-28T00:10:26;101632.41;;;-1.57;79.45
21779;BME280;11050;52.222;20.916;2023-02-28T00:12:55;101643.91;;;-1.55;79.68
21779;BME280;11050;52.222;20.916;2023-02-28T00:15:23;101638.63;;;-1.56;80.09
21779;BME280;11050;52.222;20.916;2023-02-28T00:17:49;101638.63;;;-1.56;79.72
21779;BME280;11050;52.222;20.916;2023-02-28T00:20:16;101647.72;;;-1.57;80.08
21779;BME280;11050;52.222;20.916;2023-02-28T00:22:46;101648.84;;;-1.60;79.68
21779;BME280;11050;52.222;20.916;2023-02-28T00:25:17;101649.16;;;-1.63;80.27
21779;BME280;11050;52.222;20.916;2023-02-28T00:27:44;101648.59;;;-1.66;80.41
21779;BME280;11050;52.222;20.916;2023-02-28T00:30:15;101659.38;;;-1.66;80.56
21779;BME280;11050;52.222;20.916;2023-02-28T00:32:41;101654.25;;;-1.69;80.46
21779;BME280;11050;52.222;20.916;2023-02-28T00:35:07;101648.03;;;-1.70;80.50
21779;BME280;11050;52.222;20.916;2023-02-28T00:37:33;101651.84;;;-1.72;81.20
21779;BME280;11050;52.222;20.916;2023-02-28T00:39:59;101660.78;;;-1.72;80.81
21779;BME280;11050;52.222;20.916;2023-02-28T00:42:25;101646.03;;;-1.77;80.96
21779;BME280;11050;52.222;20.916;2023-02-28T00:44:51;101655.53;;;-1.73;80.69
21779;BME280;11050;52.222;20.916;2023-02-28T00:47:17;101649.44;;;-1.75;80.80
21779;BME280;11050;52.222;20.916;2023-02-28T00:49:43;101644.63;;;-1.81;80.61
21779;BME280;11050;52.222;20.916;2023-02-28T00:52:09;101648.84;;;-1.79;80.75
21779;BME280;11050;52.222;20.916;2023-02-28T00:54:35;101644.31;;;-1.78;81.54
21779;BME280;11050;52.222;20.916;2023-02-28T00:57:01;101643.34;;;-1.77;81.48
21779;BME280;11050;52.222;20.916;2023-02-28T00:59:27;101651.44;;;-1.77;81.35
21779;BME280;11050;52.222;20.916;2023-02-28T01:01:52;101648.28;;;-1.82;81.46
21779;BME280;11050;52.222;20.916;2023-02-28T01:04:18;101641.38;;;-1.85;81.40
21779;BME280;11050;52.222;20.916;2023-02-28T01:06:44;101652.84;;;-1.83;81.96
21779;BME280;11050;52.222;20.916;2023-02-28T01:09:10;101642.50;;;-1.87;81.55
21779;BME280;11050;52.222;20.916;2023-02-28T01:11:37;101637.41;;;-1.90;81.98
21779;BME280;11050;52.222;20.916;2023-02-28T01:14:02;101643.47;;;-1.88;82.32
21779;BME280;11050;52.222;20.916;2023-02-28T01:16:30;101642.63;;;-1.89;82.92
21779;BME280;11050;52.222;20.916;2023-02-28T01:18:55;101647.31;;;-1.91;83.11
21779;BME280;11050;52.222;20.916;2023-02-28T01:21:22;101645.47;;;-1.90;83.32
21779;BME280;11050;52.222;20.916;2023-02-28T01:23:48;101638.38;;;-1.92;82.95
21779;BME280;11050;52.222;20.916;2023-02-28T01:26:18;101638.38;;;-1.92;83.61
21779;BME280;11050;52.222;20.916;2023-02-28T01:28:44;101639.63;;;-1.96;83.69
21779;BME280;11050;52.222;20.916;2023-02-28T01:31:11;101630.13;;;-2.00;83.81
21779;BME280;11050;52.222;20.916;2023-02-28T01:33:37;101645.16;;;-1.97;84.17
21779;BME280;11050;52.222;20.916;2023-02-28T01:36:09;101649.00;;;-2.00;84.94
21779;BME280;11050;52.222;20.916;2023-02-28T01:38:35;101641.34;;;-2.04;85.66
21779;BME280;11050;52.222;20.916;2023-02-28T01:41:01;101637.63;;;-2.13;86.26
21779;BME280;11050;52.222;20.916;2023-02-28T01:43:52;101656.34;;;-2.11;86.27
21779;BME280;11050;52.222;20.916;2023-02-28T01:46:18;101644.88;;;-2.13;86.44
21779;BME280;11050;52.222;20.916;2023-02-28T01:49:11;101641.59;;;-2.17;86.40
21779;BME280;11050;52.222;20.916;2023-02-28T01:51:49;101647.41;;;-2.21;86.36
21779;BME280;11050;52.222;20.916;2023-02-28T01:54:26;101658.75;;;-2.18;86.34
21779;BME280;11050;52.222;20.916;2023-02-28T01:57:01;101649.66;;;-2.17;86.16
21779;BME280;11050;52.222;20.916;2023-02-28T01:59:45;101656.06;;;-2.18;85.46
21779;BME280;11050;52.222;20.916;2023-02-28T02:02:20;101649.81;;;-2.18;85.52
21779;BME280;11050;52.222;20.916;2023-02-28T02:05:08;101658.03;;;-2.20;86.32
21779;BME280;11050;52.222;20.916;2023-02-28T02:07:39;101644.00;;;-2.23;85.76
21779;BME280;11050;52.222;20.916;2023-02-28T02:10:19;101647.41;;;-2.21;85.83
21779;BME280;11050;52.222;20.916;2023-02-28T02:26:26;101651.06;;;-2.32;85.93
21779;BME280;11050;52.222;20.916;2023-02-28T02:38:14;101654.47;;;-2.30;86.20
21779;BME280;11050;52.222;20.916;2023-02-28T02:41:09;101646.97;;;-2.36;86.94
21779;BME280;11050;52.222;20.916;2023-02-28T02:43:48;101640.88;;;-2.38;87.49
21779;BME280;11050;52.222;20.916;2023-02-28T02:46:36;101630.91;;;-2.47;87.30
21779;BME280;11050;52.222;20.916;2023-02-28T02:49:09;101653.47;;;-2.38;87.37
21779;BME280;11050;52.222;20.916;2023-02-28T02:51:38;101649.91;;;-2.39;87.46
21779;BME280;11050;52.222;20.916;2023-02-28T02:54:13;101657.13;;;-2.39;87.51
21779;BME280;11050;52.222;20.916;2023-02-28T02:56:45;101666.06;;;-2.39;87.39
21779;BME280;11050;52.222;20.916;2023-02-28T02:59:17;101642.97;;;-2.51;87.39
21779;BME280;11050;52.222;20.916;2023-02-28T03:01:53;101659.97;;;-2.41;87.33
21779;BME280;11050;52.222;20.916;2023-02-28T03:04:23;101655.16;;;-2.37;87.81
21779;BME280;11050;52.222;20.916;2023-02-28T03:06:52;101669.47;;;-2.37;87.55
21779;BME280;11050;52.222;20.916;2023-02-28T03:09:25;101665.91;;;-2.37;88.00
21779;BME280;11050;52.222;20.916;2023-02-28T03:11:55;101666.94;;;-2.38;88.64
21779;BME280;11050;52.222;20.916;2023-02-28T03:15:05;101665.09;;;-2.38;88.19
21779;BME280;11050;52.222;20.916;2023-02-28T03:17:50;101664.22;;;-2.38;88.08
21779;BME280;11050;52.222;20.916;2023-02-28T03:21:00;101659.56;;;-2.36;88.66
21779;BME280;11050;52.222;20.916;2023-02-28T03:23:47;101669.47;;;-2.37;88.50
21779;BME280;11050;52.222;20.916;2023-02-28T03:26:27;101666.06;;;-2.39;88.50
21779;BME280;11050;52.222;20.916;2023-02-28T03:32:17;101664.63;;;-2.43;88.74
21779;BME280;11050;52.222;20.916;2023-02-28T03:34:58;101671.03;;;-2.44;88.89
21779;BME280;11050;52.222;20.916;2023-02-28T03:37:28;101676.41;;;-2.44;89.60
21779;BME280;11050;52.222;20.916;2023-02-28T03:40:04;101663.09;;;-2.45;90.13
21779;BME280;11050;52.222;20.916;2023-02-28T03:42:36;101666.59;;;-2.45;90.16
21779;BME280;11050;52.222;20.916;2023-02-28T03:45:17;101658.97;;;-2.49;90.74
21779;BME280;11050;52.222;20.916;2023-02-28T03:47:52;101676.97;;;-2.40;91.25
21779;BME280;11050;52.222;20.916;2023-02-28T03:50:39;101674.13;;;-2.39;91.16
21779;BME280;11050;52.222;20.916;2023-02-28T03:53:17;101673.28;;;-2.39;90.88
21779;BME280;11050;52.222;20.916;2023-02-28T03:56:12;101683.66;;;-2.35;91.17
21779;BME280;11050;52.222;20.916;2023-02-28T03:59:08;101683.66;;;-2.35;91.83
21779;BME280;11050;52.222;20.916;2023-02-28T04:01:43;101677.84;;;-2.40;90.95
21779;BME280;11050;52.222;20.916;2023-02-28T04:04:11;101678.56;;;-2.38;91.45
21779;BME280;11050;52.222;20.916;2023-02-28T04:06:39;101682.06;;;-2.37;91.65
21779;BME280;11050;52.222;20.916;2023-02-28T04:09:08;101683.94;;;-2.38;91.67
21779;BME280;11050;52.222;20.916;2023-02-28T04:11:38;101665.88;;;-2.47;92.49
21779;BME280;11050;52.222;20.916;2023-02-28T04:14:06;101681.94;;;-2.45;92.17
21779;BME280;11050;52.222;20.916;2023-02-28T04:16:37;101682.19;;;-2.48;92.67
21779;BME280;11050;52.222;20.916;2023-02-28T04:19:06;101686.84;;;-2.50;93.42
21779;BME280;11050;52.222;20.916;2023-02-28T04:21:36;101678.19;;;-2.54;93.34
21779;BME280;11050;52.222;20.916;2023-02-28T04:24:03;101674.06;;;-2.58;93.84
21779;BME280;11050;52.222;20.916;2023-02-28T04:26:34;101683.88;;;-2.57;94.08
21779;BME280;11050;52.222;20.916;2023-02-28T04:29:03;101683.00;;;-2.57;93.99
21779;BME280;11050;52.222;20.916;2023-02-28T04:31:30;101684.00;;;-2.58;93.82
21779;BME280;11050;52.222;20.916;2023-02-28T04:33:56;101667.41;;;-2.63;94.16
21779;BME280;11050;52.222;20.916;2023-02-28T04:36:22;101670.38;;;-2.66;94.30
21779;BME280;11050;52.222;20.916;2023-02-28T04:38:49;101680.84;;;-2.63;94.87
21779;BME280;11050;52.222;20.916;2023-02-28T04:41:16;101681.84;;;-2.64;94.25
21779;BME280;11050;52.222;20.916;2023-02-28T04:43:42;101682.00;;;-2.66;94.99
21779;BME280;11050;52.222;20.916;2023-02-28T04:46:09;101687.63;;;-2.69;95.27
21779;BME280;11050;52.222;20.916;2023-02-28T04:48:37;101678.69;;;-2.69;95.17
21779;BME280;11050;52.222;20.916;2023-02-28T04:51:06;101679.84;;;-2.72;95.04
21779;BME280;11050;52.222;20.916;2023-02-28T04:53:33;101679.97;;;-2.73;95.75
21779;BME280;11050;52.222;20.916;2023-02-28T04:56:00;101686.31;;;-2.74;95.69
21779;BME280;11050;52.222;20.916;2023-02-28T04:58:26;101691.44;;;-2.71;96.06
21779;BME280;11050;52.222;20.916;2023-02-28T05:00:54;101682.91;;;-2.76;95.58
21779;BME280;11050;52.222;20.916;2023-02-28T05:03:26;101690.13;;;-2.77;95.64
21779;BME280;11050;52.222;20.916;2023-02-28T05:05:51;101679.66;;;-2.80;96.40
21779;BME280;11050;52.222;20.916;2023-02-28T05:08:17;101696.50;;;-2.78;96.74
21779;BME280;11050;52.222;20.916;2023-02-28T05:10:43;101686.03;;;-2.81;96.89
21779;BME280;11050;52.222;20.916;2023-02-28T05:13:12;101694.09;;;-2.81;96.62
21779;BME280;11050;52.222;20.916;2023-02-28T05:15:38;101705.53;;;-2.79;97.89
21779;BME280;11050;52.222;20.916;2023-02-28T05:18:04;101702.16;;;-2.81;97.24
21779;BME280;11050;52.222;20.916;2023-02-28T05:20:29;101704.66;;;-2.89;97.89
21779;BME280;11050;52.222;20.916;2023-02-28T05:22:57;101718.31;;;-2.81;98.16
21779;BME280;11050;52.222;20.916;2023-02-28T05:25:24;101708.53;;;-2.82;98.05
21779;BME280;11050;52.222;20.916;2023-02-28T05:27:50;101719.72;;;-2.77;97.75
21779;BME280;11050;52.222;20.916;2023-02-28T05:30:16;101721.69;;;-2.79;98.12
21779;BME280;11050;52.222;20.916;2023-02-28T05:32:42;101722.53;;;-2.78;98.35
21779;BME280;11050;52.222;20.916;2023-02-28T05:35:10;101724.38;;;-2.79;98.53
21779;BME280;11050;52.222;20.916;2023-02-28T05:37:38;101724.84;;;-2.74;98.85
21779;BME280;11050;52.222;20.916;2023-02-28T05:40:06;101730.94;;;-2.72;98.76
21779;BME280;11050;52.222;20.916;2023-02-28T05:42:33;101726.69;;;-2.74;99.30
21779;BME280;11050;52.222;20.916;2023-02-28T05:44:58;101734.09;;;-2.67;99.06
21779;BME280;11050;52.222;20.916;2023-02-28T05:47:25;101733.53;;;-2.61;98.62
21779;BME280;11050;52.222;20.916;2023-02-28T05:49:50;101734.72;;;-2.54;98.92
21779;BME280;11050;52.222;20.916;2023-02-28T05:52:16;101736.16;;;-2.50;98.97
21779;BME280;11050;52.222;20.916;2023-02-28T05:54:42;101741.84;;;-2.43;98.25
21779;BME280;11050;52.222;20.916;2023-02-28T05:57:08;101741.19;;;-2.36;98.08
21779;BME280;11050;52.222;20.916;2023-02-28T05:59:34;101755.06;;;-2.31;98.02
21779;BME280;11050;52.222;20.916;2023-02-28T06:01:59;101754.09;;;-2.20;98.04
21779;BME280;11050;52.222;20.916;2023-02-28T06:04:25;101748.03;;;-2.13;98.09
21779;BME280;11050;52.222;20.916;2023-02-28T06:06:51;101754.16;;;-2.01;98.20
21779;BME280;11050;52.222;20.916;2023-02-28T06:09:17;101751.50;;;-1.92;97.39
21779;BME280;11050;52.222;20.916;2023-02-28T06:11:43;101756.78;;;-1.80;97.68
21779;BME280;11050;52.222;20.916;2023-02-28T06:14:18;101754.81;;;-1.69;97.07
21779;BME280;11050;52.222;20.916;2023-02-28T06:16:44;101758.53;;;-1.60;96.64
21779;BME280;11050;52.222;20.916;2023-02-28T06:19:10;101746.19;;;-1.53;96.75
21779;BME280;11050;52.222;20.916;2023-02-28T06:21:36;101755.56;;;-1.38;96.53
21779;BME280;11050;52.222;20.916;2023-02-28T06:24:03;101756.38;;;-1.28;95.82
21779;BME280;11050;52.222;20.916;2023-02-28T06:26:30;101755.81;;;-1.22;95.75
21779;BME280;11050;52.222;20.916;2023-02-28T06:28:56;101760.25;;;-1.12;95.79
21779;BME280;11050;52.222;20.916;2023-02-28T06:31:22;101761.50;;;-1.06;95.21
21779;BME280;11050;52.222;20.916;2023-02-28T06:33:49;101765.03;;;-0.96;95.03
21779;BME280;11050;52.222;20.916;2023-02-28T06:36:16;101764.59;;;-0.82;94.39
21779;BME280;11050;52.222;20.916;2023-02-28T06:38:43;101757.03;;;-0.69;93.59
21779;BME280;11050;52.222;20.916;2023-02-28T06:41:10;101749.88;;;-0.60;92.34
21779;BME280;11050;52.222;20.916;2023-02-28T06:43:40;101747.16;;;-0.51;92.02
21779;BME280;11050;52.222;20.916;2023-02-28T06:46:10;101746.00;;;-0.39;90.82
21779;BME280;11050;52.222;20.916;2023-02-28T06:48:36;101741.00;;;-0.34;89.81
21779;BME280;11050;52.222;20.916;2023-02-28T06:51:11;101738.78;;;-0.21;88.94
21779;BME280;11050;52.222;20.916;2023-02-28T06:53:40;101733.34;;;-0.11;88.53
21779;BME280;11050;52.222;20.916;2023-02-28T06:56:09;101732.75;;;-0.05;87.31
21779;BME280;11050;52.222;20.916;2023-02-28T06:58:35;101726.31;;;0.06;86.44
21779;BME280;11050;52.222;20.916;2023-02-28T07:01:02;101725.56;;;0.13;86.06
21779;BME280;11050;52.222;20.916;2023-02-28T07:03:28;101734.97;;;0.27;85.23
21779;BME280;11050;52.222;20.916;2023-02-28T07:05:54;101733.75;;;0.39;84.27
21779;BME280;11050;52.222;20.916;2023-02-28T07:08:23;101723.56;;;0.50;83.64
21779;BME280;11050;52.222;20.916;2023-02-28T07:10:56;101720.78;;;0.60;83.24
21779;BME280;11050;52.222;20.916;2023-02-28T07:13:23;101728.34;;;0.74;81.78
21779;BME280;11050;52.222;20.916;2023-02-28T07:16:01;101716.59;;;0.83;81.02
21779;BME280;11050;52.222;20.916;2023-02-28T07:18:29;101730.59;;;0.96;79.42
21779;BME280;11050;52.222;20.916;2023-02-28T07:20:55;101732.19;;;1.07;78.11
21779;BME280;11050;52.222;20.916;2023-02-28T07:23:22;101726.31;;;1.11;76.33
21779;BME280;11050;52.222;20.916;2023-02-28T07:25:49;101729.22;;;1.18;74.12
21779;BME280;11050;52.222;20.916;2023-02-28T07:28:15;101730.13;;;1.26;72.92
21779;BME280;11050;52.222;20.916;2023-02-28T07:30:41;101731.13;;;1.25;70.84
21779;BME280;11050;52.222;20.916;2023-02-28T07:33:07;101719.31;;;1.34;69.31
21779;BME280;11050;52.222;20.916;2023-02-28T07:35:33;101728.38;;;1.43;66.97
21779;BME280;11050;52.222;20.916;2023-02-28T07:37:59;101727.88;;;1.47;65.70
21779;BME280;11050;52.222;20.916;2023-02-28T07:40:25;101723.88;;;1.59;65.82
21779;BME280;11050;52.222;20.916;2023-02-28T07:42:51;101726.66;;;1.75;65.31
21779;BME280;11050;52.222;20.916;2023-02-28T07:45:18;101729.06;;;1.78;65.79
21779;BME280;11050;52.222;20.916;2023-02-28T07:47:45;101726.31;;;1.70;65.78
21779;BME280;11050;52.222;20.916;2023-02-28T07:50:14;101738.81;;;1.63;65.93
21779;BME280;11050;52.222;20.916;2023-02-28T07:52:40;101726.31;;;1.70;66.34
21779;BME280;11050;52.222;20.916;2023-02-28T07:55:08;101735.53;;;1.85;66.36
21779;BME280;11050;52.222;20.916;2023-02-28T07:57:35;101731.69;;;1.96;65.00
21779;BME280;11050;52.222;20.916;2023-02-28T08:00:03;101736.78;;;1.99;64.44
21779;BME280;11050;52.222;20.916;2023-02-28T08:02:29;101735.78;;;2.08;63.65
21779;BME280;11050;52.222;20.916;2023-02-28T08:04:54;101741.78;;;2.20;63.56
21779;BME280;11050;52.222;20.916;2023-02-28T08:07:21;101734.31;;;2.22;62.18
21779;BME280;11050;52.222;20.916;2023-02-28T08:09:46;101737.53;;;2.25;61.62
21779;BME280;11050;52.222;20.916;2023-02-28T08:12:12;101743.47;;;2.29;60.31
21779;BME280;11050;52.222;20.916;2023-02-28T08:14:38;101742.66;;;2.36;59.77
21779;BME280;11050;52.222;20.916;2023-02-28T08:17:06;101740.47;;;2.32;58.94
21779;BME280;11050;52.222;20.916;2023-02-28T08:19:31;101732.84;;;2.35;59.91
21779;BME280;11050;52.222;20.916;2023-02-28T08:21:58;101743.69;;;2.43;57.82
21779;BME280;11050;52.222;20.916;2023-02-28T08:24:24;101732.69;;;2.45;57.95
21779;BME280;11050;52.222;20.916;2023-02-28T08:26:50;101741.66;;;2.45;56.33
21779;BME280;11050;52.222;20.916;2023-02-28T08:29:16;101738.94;;;2.37;55.93
21779;BME280;11050;52.222;20.916;2023-02-28T08:31:42;101746.56;;;2.34;56.31
21779;BME280;11050;52.222;20.916;2023-02-28T08:34:15;101730.81;;;2.37;56.85
21779;BME280;11050;52.222;20.916;2023-02-28T08:36:41;101734.56;;;2.44;55.55
21779;BME280;11050;52.222;20.916;2023-02-28T08:39:08;101732.53;;;2.54;55.37
21779;BME280;11050;52.222;20.916;2023-02-28T08:41:34;101732.03;;;2.67;54.53
21779;BME280;11050;52.222;20.916;2023-02-28T08:44:00;101738.16;;;2.77;54.53
21779;BME280;11050;52.222;20.916;2023-02-28T08:46:26;101733.25;;;2.80;53.96
21779;BME280;11050;52.222;20.916;2023-02-28T08:48:55;101735.63;;;2.67;53.44
21779;BME280;11050;52.222;20.916;2023-02-28T08:51:22;101742.88;;;2.59;53.98
21779;BME280;11050;52.222;20.916;2023-02-28T08:53:53;101736.28;;;2.69;54.27
21779;BME280;11050;52.222;20.916;2023-02-28T08:56:19;101740.53;;;2.80;54.57
21779;BME280;11050;52.222;20.916;2023-02-28T08:58:47;101744.59;;;3.00;54.92
21779;BME280;11050;52.222;20.916;2023-02-28T09:01:16;101747.34;;;3.24;54.01
21779;BME280;11050;52.222;20.916;2023-02-28T09:03:44;101746.97;;;3.19;52.69
21779;BME280;11050;52.222;20.916;2023-02-28T09:06:12;101747.34;;;3.08;53.32
21779;BME280;11050;52.222;20.916;2023-02-28T09:08:40;101738.84;;;3.19;53.36
21779;BME280;11050;52.222;20.916;2023-02-28T09:11:06;101746.47;;;3.24;52.71
21779;BME280;11050;52.222;20.916;2023-02-28T09:13:33;101749.38;;;3.22;52.27
21779;BME280;11050;52.222;20.916;2023-02-28T09:16:02;101747.66;;;3.29;52.28
21779;BME280;11050;52.222;20.916;2023-02-28T09:18:28;101757.00;;;3.27;51.81
21779;BME280;11050;52.222;20.916;2023-02-28T09:20:54;101748.53;;;3.22;51.87
21779;BME280;11050;52.222;20.916;2023-02-28T09:23:20;101757.50;;;3.38;51.45
21779;BME280;11050;52.222;20.916;2023-02-28T09:25:53;101759.03;;;3.41;52.19
21779;BME280;11050;52.222;20.916;2023-02-28T09:28:20;101758.84;;;3.42;50.97
21779;BME280;11050;52.222;20.916;2023-02-28T09:30:49;101754.78;;;3.38;51.96
21779;BME280;11050;52.222;20.916;2023-02-28T09:33:16;101753.56;;;3.57;51.99
21779;BME280;11050;52.222;20.916;2023-02-28T09:35:42;101760.47;;;3.75;50.79
21779;BME280;11050;52.222;20.916;2023-02-28T09:38:09;101757.25;;;3.80;51.22
21779;BME280;11050;52.222;20.916;2023-02-28T09:43:27;101751.63;;;3.81;49.81
21779;BME280;11050;52.222;20.916;2023-02-28T09:48:55;101763.19;;;3.75;49.83
21779;BME280;11050;52.222;20.916;2023-02-28T09:51:46;101756.06;;;3.74;50.62
21779;BME280;11050;52.222;20.916;2023-02-28T09:54:20;101747.91;;;3.74;50.59
21779;BME280;11050;52.222;20.916;2023-02-28T09:56:58;101756.53;;;3.86;50.48
21779;BME280;11050;52.222;20.916;2023-02-28T10:05:20;101766.50;;;4.02;48.74
21779;BME280;11050;52.222;20.916;2023-02-28T10:08:17;101773.94;;;4.16;48.75
21779;BME280;11050;52.222;20.916;2023-02-28T10:10:51;101764.09;;;4.15;49.11
21779;BME280;11050;52.222;20.916;2023-02-28T10:13:50;101762.00;;;4.25;49.12
21779;BME280;11050;52.222;20.916;2023-02-28T10:16:32;101771.69;;;4.27;46.01
21779;BME280;11050;52.222;20.916;2023-02-28T10:24:33;101758.94;;;4.28;45.85
21779;BME280;11050;52.222;20.916;2023-02-28T10:27:25;101760.03;;;4.41;46.68
21779;BME280;11050;52.222;20.916;2023-02-28T10:29:54;101755.75;;;4.47;45.98
21779;BME280;11050;52.222;20.916;2023-02-28T10:32:25;101761.34;;;4.53;46.39
21779;BME280;11050;52.222;20.916;2023-02-28T10:37:43;101759.91;;;4.65;47.35
21779;BME280;11050;52.222;20.916;2023-02-28T10:43:18;101744.03;;;4.46;47.02
21779;BME280;11050;52.222;20.916;2023-02-28T10:46:00;101752.78;;;4.56;47.26
21779;BME280;11050;52.222;20.916;2023-02-28T10:51:02;101755.06;;;4.98;47.22
21779;BME280;11050;52.222;20.916;2023-02-28T10:53:50;101742.91;;;5.09;45.56
21779;BME280;11050;52.222;20.916;2023-02-28T10:56:23;101736.88;;;5.13;45.87
21779;BME280;11050;52.222;20.916;2023-02-28T10:59:03;101744.94;;;5.29;45.45
21779;BME280;11050;52.222;20.916;2023-02-28T11:03:58;101733.56;;;5.40;44.40
21779;BME280;11050;52.222;20.916;2023-02-28T11:06:33;101734.16;;;5.50;44.05
21779;BME280;11050;52.222;20.916;2023-02-28T11:09:04;101723.63;;;5.47;43.94
21779;BME280;11050;52.222;20.916;2023-02-28T11:11:45;101724.31;;;5.78;43.43
21779;BME280;11050;52.222;20.916;2023-02-28T11:14:25;101711.88;;;6.20;42.47
21779;BME280;11050;52.222;20.916;2023-02-28T11:16:52;101708.69;;;6.52;40.90
21779;BME280;11050;52.222;20.916;2023-02-28T11:19:25;101717.88;;;6.65;41.44
21779;BME280;11050;52.222;20.916;2023-02-28T11:21:57;101707.47;;;6.97;41.13
21779;BME280;11050;52.222;20.916;2023-02-28T11:24:36;101711.59;;;7.35;39.65
21779;BME280;11050;52.222;20.916;2023-02-28T11:27:03;101691.69;;;7.47;38.86
21779;BME280;11050;52.222;20.916;2023-02-28T11:29:32;101694.22;;;7.83;38.78
21779;BME280;11050;52.222;20.916;2023-02-28T11:32:20;101692.34;;;8.24;37.85
21779;BME280;11050;52.222;20.916;2023-02-28T11:35:10;101685.06;;;8.51;36.63
21779;BME280;11050;52.222;20.916;2023-02-28T11:37:39;101685.56;;;8.94;36.67
21779;BME280;11050;52.222;20.916;2023-02-28T11:40:18;101683.66;;;9.33;35.62
21779;BME280;11050;52.222;20.916;2023-02-28T11:45:45;101667.25;;;10.04;33.50
21779;BME280;11050;52.222;20.916;2023-02-28T11:57:00;101661.88;;;11.22;30.92
21779;BME280;11050;52.222;20.916;2023-02-28T11:59:56;101661.69;;;11.23;30.68
21779;BME280;11050;52.222;20.916;2023-02-28T12:03:00;101658.22;;;11.53;31.04
21779;BME280;11050;52.222;20.916;2023-02-28T12:05:51;101647.41;;;11.94;30.67
21779;BME280;11050;52.222;20.916;2023-02-28T12:08:48;101654.03;;;12.22;30.16
21779;BME280;11050;52.222;20.916;2023-02-28T12:11:34;101649.31;;;12.59;29.49
21779;BME280;11050;52.222;20.916;2023-02-28T12:14:58;101642.56;;;12.96;29.08
21779;BME280;11050;52.222;20.916;2023-02-28T12:17:55;101643.50;;;13.43;28.78
21779;BME280;11050;52.222;20.916;2023-02-28T12:28:33;101638.94;;;14.35;26.10
21779;BME280;11050;52.222;20.916;2023-02-28T12:31:24;101634.31;;;14.68;26.17
21779;BME280;11050;52.222;20.916;2023-02-28T12:33:56;101633.09;;;15.26;25.61
21779;BME280;11050;52.222;20.916;2023-02-28T12:36:25;101631.25;;;15.31;25.02
21779;BME280;11050;52.222;20.916;2023-02-28T12:39:01;101638.88;;;15.41;25.26
21779;BME280;11050;52.222;20.916;2023-02-28T12:41:52;101625.81;;;15.36;24.79
21779;BME280;11050;52.222;20.916;2023-02-28T12:44:28;101627.91;;;15.62;24.60
21779;BME280;11050;52.222;20.916;2023-02-28T12:47:02;101622.56;;;15.99;24.06
21779;BME280;11050;52.222;20.916;2023-02-28T12:52:44;101619.25;;;16.45;24.08
21779;BME280;11050;52.222;20.916;2023-02-28T12:58:47;101618.31;;;16.56;23.39
21779;BME280;11050;52.222;20.916;2023-02-28T13:04:34;101624.41;;;17.48;22.81
21779;BME280;11050;52.222;20.916;2023-02-28T13:07:19;101623.53;;;17.79;22.44
21779;BME280;11050;52.222;20.916;2023-02-28T13:09:56;101609.06;;;17.77;22.00
21779;BME280;11050;52.222;20.916;2023-02-28T13:12:23;101611.63;;;17.94;21.85
21779;BME280;11050;52.222;20.916;2023-02-28T13:14:50;101612.28;;;18.11;21.98
21779;BME280;11050;52.222;20.916;2023-02-28T13:17:24;101616.09;;;18.57;20.89
21779;BME280;11050;52.222;20.916;2023-02-28T13:22:42;101610.84;;;19.06;20.56
21779;BME280;11050;52.222;20.916;2023-02-28T13:28:12;101593.53;;;18.63;20.79
21779;BME280;11050;52.222;20.916;2023-02-28T13:36:29;101592.47;;;19.10;20.47
21779;BME280;11050;52.222;20.916;2023-02-28T13:47:52;101589.63;;;19.65;19.91
21779;BME280;11050;52.222;20.916;2023-02-28T13:50:37;101582.91;;;19.71;19.77
21779;BME280;11050;52.222;20.916;2023-02-28T13:56:22;101576.78;;;19.69;19.21
21779;BME280;11050;52.222;20.916;2023-02-28T14:01:42;101563.84;;;19.93;19.57
21779;BME280;11050;52.222;20.916;2023-02-28T14:07:01;101572.91;;;20.29;19.36
21779;BME280;11050;52.222;20.916;2023-02-28T14:09:37;101566.63;;;19.98;19.21
21779;BME280;11050;52.222;20.916;2023-02-28T14:18:36;101555.81;;;19.87;19.74
21779;BME280;11050;52.222;20.916;2023-02-28T14:35:53;101548.34;;;19.62;19.88
21779;BME280;11050;52.222;20.916;2023-02-28T14:38:32;101542.72;;;19.77;19.52
21779;BME280;11050;52.222;20.916;2023-02-28T14:41:04;101534.28;;;19.92;19.57
21779;BME280;11050;52.222;20.916;2023-02-28T14:43:31;101531.94;;;19.30;19.76
21779;BME280;11050;52.222;20.916;2023-02-28T14:46:04;101543.13;;;18.95;20.18
21779;BME280;11050;52.222;20.916;2023-02-28T14:48:32;101537.84;;;18.93;20.47
21779;BME280;11050;52.222;20.916;2023-02-28T14:51:00;101538.09;;;19.07;20.03
21779;BME280;11050;52.222;20.916;2023-02-28T14:53:30;101525.81;;;19.23;20.09
21779;BME280;11050;52.222;20.916;2023-02-28T14:56:00;101533.59;;;19.46;20.04
21779;BME280;11050;52.222;20.916;2023-02-28T14:58:29;101534.47;;;19.42;19.95
21779;BME280;11050;52.222;20.916;2023-02-28T15:01:00;101537.25;;;19.17;20.25
21779;BME280;11050;52.222;20.916;2023-02-28T15:03:37;101523.91;;;18.73;20.44
21779;BME280;11050;52.222;20.916;2023-02-28T15:06:16;101531.63;;;18.21;21.18
21779;BME280;11050;52.222;20.916;2023-02-28T15:08:44;101525.91;;;17.86;21.62
21779;BME280;11050;52.222;20.916;2023-02-28T15:11:18;101525.94;;;17.39;21.97
21779;BME280;11050;52.222;20.916;2023-02-28T15:13:51;101523.72;;;17.36;21.98
21779;BME280;11050;52.222;20.916;2023-02-28T15:16:23;101527.34;;;17.42;22.24
21779;BME280;11050;52.222;20.916;2023-02-28T15:18:59;101513.94;;;17.29;22.21